sensor_id;sensor_type;location;lat;lon;timestamp;P1;durP1;ratioP1;P2;durP2;ratioP2
32347;SDS011;18821;44.800;10.326;2022-09-09T00:02:20;21.30;;;14.95;;
32347;SDS011;18821;44.800;10.326;2022-09-09T00:04:53;20.92;;;14.30;;
32347;SDS011;18821;44.800;10.326;2022-09-09T00:15:26;17.33;;;12.80;;
32347;SDS011;18821;44.800;10.326;2022-09-09T00:20:55;20.55;;;13.88;;
32347;SDS011;18821;44.800;10.326;2022-09-09T00:23:34;21.25;;;14.10;;
32347;SDS011;18821;44.800;10.326;2022-09-09T00:31:36;20.35;;;12.85;;
32347;SDS011;18821;44.800;10.326;2022-09-09T00:34:04;19.67;;;13.30;;
32347;SDS011;18821;44.800;10.326;2022-09-09T00:36:42;20.27;;;13.48;;
32347;SDS011;18821;44.800;10.326;2022-09-09T00:44:55;22.27;;;13.75;;
32347;SDS011;18821;44.800;10.326;2022-09-09T00:47:46;23.15;;;13.35;;
32347;SDS011;18821;44.800;10.326;2022-09-09T00:50:17;22.05;;;14.05;;
32347;SDS011;18821;44.800;10.326;2022-09-09T00:58:35;20.27;;;12.77;;
32347;SDS011;18821;44.800;10.326;2022-09-09T01:03:36;21.98;;;13.27;;
32347;SDS011;18821;44.800;10.326;2022-09-09T01:23:06;20.08;;;11.70;;
32347;SDS011;18821;44.800;10.326;2022-09-09T01:28:26;18.88;;;13.02;;
32347;SDS011;18821;44.800;10.326;2022-09-09T01:31:00;17.20;;;11.63;;
32347;SDS011;18821;44.800;10.326;2022-09-09T01:33:34;15.43;;;11.57;;
32347;SDS011;18821;44.800;10.326;2022-09-09T01:36:01;19.73;;;11.75;;
32347;SDS011;18821;44.800;10.326;2022-09-09T01:38:34;17.42;;;10.90;;
32347;SDS011;18821;44.800;10.326;2022-09-09T01:41:01;13.23;;;9.77;;
32347;SDS011;18821;44.800;10.326;2022-09-09T01:43:38;15.43;;;10.27;;
32347;SDS011;18821;44.800;10.326;2022-09-09T01:46:05;14.15;;;9.32;;
32347;SDS011;18821;44.800;10.326;2022-09-09T01:48:32;18.38;;;9.50;;
32347;SDS011;18821;44.800;10.326;2022-09-09T01:51:02;14.88;;;9.50;;
32347;SDS011;18821;44.800;10.326;2022-09-09T01:53:28;15.80;;;9.18;;
32347;SDS011;18821;44.800;10.326;2022-09-09T01:55:58;11.20;;;7.30;;
32347;SDS011;18821;44.800;10.326;2022-09-09T01:58:29;14.30;;;8.63;;
32347;SDS011;18821;44.800;10.326;2022-09-09T02:04:54;11.23;;;7.13;;
32347;SDS011;18821;44.800;10.326;2022-09-09T02:07:11;13.02;;;6.82;;
32347;SDS011;18821;44.800;10.326;2022-09-09T02:09:47;13.65;;;7.28;;
32347;SDS011;18821;44.800;10.326;2022-09-09T02:12:18;10.73;;;6.53;;
32347;SDS011;18821;44.800;10.326;2022-09-09T02:17:26;8.18;;;5.53;;
32347;SDS011;18821;44.800;10.326;2022-09-09T02:20:07;13.27;;;5.45;;
32347;SDS011;18821;44.800;10.326;2022-09-09T02:22:45;7.55;;;3.60;;
32347;SDS011;18821;44.800;10.326;2022-09-09T02:25:17;5.55;;;2.85;;
32347;SDS011;18821;44.800;10.326;2022-09-09T02:27:47;12.50;;;2.75;;
32347;SDS011;18821;44.800;10.326;2022-09-09T02:30:17;4.88;;;2.10;;
32347;SDS011;18821;44.800;10.326;2022-09-09T02:32:50;8.05;;;2.50;;
32347;SDS011;18821;44.800;10.326;2022-09-09T02:35:24;4.23;;;2.00;;
32347;SDS011;18821;44.800;10.326;2022-09-09T02:37:53;6.15;;;2.03;;
32347;SDS011;18821;44.800;10.326;2022-09-09T02:40:22;5.60;;;2.00;;
32347;SDS011;18821;44.800;10.326;2022-09-09T02:42:56;5.10;;;1.63;;
32347;SDS011;18821;44.800;10.326;2022-09-09T02:45:27;2.95;;;1.73;;
32347;SDS011;18821;44.800;10.326;2022-09-09T02:53:25;6.47;;;1.45;;
32347;SDS011;18821;44.800;10.326;2022-09-09T02:56:29;3.60;;;1.85;;
32347;SDS011;18821;44.800;10.326;2022-09-09T02:59:02;4.40;;;1.45;;
32347;SDS011;18821;44.800;10.326;2022-09-09T03:01:29;6.65;;;1.42;;
32347;SDS011;18821;44.800;10.326;2022-09-09T03:03:58;7.75;;;1.70;;
32347;SDS011;18821;44.800;10.326;2022-09-09T03:06:24;2.83;;;1.30;;
32347;SDS011;18821;44.800;10.326;2022-09-09T03:08:59;4.38;;;1.73;;
32347;SDS011;18821;44.800;10.326;2022-09-09T03:11:28;2.63;;;1.17;;
32347;SDS011;18821;44.800;10.326;2022-09-09T03:13:54;5.55;;;1.70;;
32347;SDS011;18821;44.800;10.326;2022-09-09T03:16:22;4.95;;;1.63;;
32347;SDS011;18821;44.800;10.326;2022-09-09T03:18:50;4.97;;;1.30;;
32347;SDS011;18821;44.800;10.326;2022-09-09T03:21:18;6.50;;;1.70;;
32347;SDS011;18821;44.800;10.326;2022-09-09T03:23:44;3.28;;;1.60;;
32347;SDS011;18821;44.800;10.326;2022-09-09T03:26:10;7.25;;;2.10;;
32347;SDS011;18821;44.800;10.326;2022-09-09T03:28:42;5.07;;;1.73;;
32347;SDS011;18821;44.800;10.326;2022-09-09T03:31:09;4.05;;;1.40;;
32347;SDS011;18821;44.800;10.326;2022-09-09T03:33:39;5.10;;;1.77;;
32347;SDS011;18821;44.800;10.326;2022-09-09T03:36:09;4.32;;;1.70;;
32347;SDS011;18821;44.800;10.326;2022-09-09T03:38:35;6.28;;;1.67;;
32347;SDS011;18821;44.800;10.326;2022-09-09T03:41:02;7.40;;;1.67;;
32347;SDS011;18821;44.800;10.326;2022-09-09T03:43:29;6.93;;;1.65;;
32347;SDS011;18821;44.800;10.326;2022-09-09T03:45:55;2.80;;;1.50;;
32347;SDS011;18821;44.800;10.326;2022-09-09T03:48:26;7.85;;;1.40;;
32347;SDS011;18821;44.800;10.326;2022-09-09T03:50:54;2.17;;;1.08;;
32347;SDS011;18821;44.800;10.326;2022-09-09T03:53:23;3.08;;;1.60;;
32347;SDS011;18821;44.800;10.326;2022-09-09T03:55:51;5.20;;;1.45;;
32347;SDS011;18821;44.800;10.326;2022-09-09T03:58:21;5.45;;;1.50;;
32347;SDS011;18821;44.800;10.326;2022-09-09T04:00:53;8.32;;;1.30;;
32347;SDS011;18821;44.800;10.326;2022-09-09T04:03:25;6.85;;;1.88;;
32347;SDS011;18821;44.800;10.326;2022-09-09T04:05:52;7.47;;;1.48;;
32347;SDS011;18821;44.800;10.326;2022-09-09T04:08:19;6.57;;;1.50;;
32347;SDS011;18821;44.800;10.326;2022-09-09T04:10:47;5.57;;;1.35;;
32347;SDS011;18821;44.800;10.326;2022-09-09T04:13:15;4.93;;;1.17;;
32347;SDS011;18821;44.800;10.326;2022-09-09T04:15:53;3.08;;;1.38;;
32347;SDS011;18821;44.800;10.326;2022-09-09T04:18:23;4.82;;;1.80;;
32347;SDS011;18821;44.800;10.326;2022-09-09T04:20:49;7.75;;;1.67;;
32347;SDS011;18821;44.800;10.326;2022-09-09T04:23:18;5.30;;;1.40;;
32347;SDS011;18821;44.800;10.326;2022-09-09T04:25:46;5.90;;;1.40;;
32347;SDS011;18821;44.800;10.326;2022-09-09T04:28:17;2.90;;;1.42;;
32347;SDS011;18821;44.800;10.326;2022-09-09T04:30:45;3.10;;;1.20;;
32347;SDS011;18821;44.800;10.326;2022-09-09T04:33:12;4.43;;;1.30;;
32347;SDS011;18821;44.800;10.326;2022-09-09T04:35:39;9.00;;;1.73;;
32347;SDS011;18821;44.800;10.326;2022-09-09T04:38:08;6.72;;;1.90;;
32347;SDS011;18821;44.800;10.326;2022-09-09T04:40:35;4.88;;;1.60;;
32347;SDS011;18821;44.800;10.326;2022-09-09T04:43:02;8.52;;;1.88;;
32347;SDS011;18821;44.800;10.326;2022-09-09T04:45:32;6.07;;;1.65;;
32347;SDS011;18821;44.800;10.326;2022-09-09T04:47:59;14.10;;;2.15;;
32347;SDS011;18821;44.800;10.326;2022-09-09T04:50:25;3.28;;;1.67;;
32347;SDS011;18821;44.800;10.326;2022-09-09T04:52:59;11.57;;;1.88;;
32347;SDS011;18821;44.800;10.326;2022-09-09T04:55:27;11.68;;;1.90;;
32347;SDS011;18821;44.800;10.326;2022-09-09T04:57:54;8.02;;;1.88;;
32347;SDS011;18821;44.800;10.326;2022-09-09T05:00:20;8.00;;;2.08;;
32347;SDS011;18821;44.800;10.326;2022-09-09T05:02:48;7.07;;;1.70;;
32347;SDS011;18821;44.800;10.326;2022-09-09T05:05:14;4.65;;;1.77;;
32347;SDS011;18821;44.800;10.326;2022-09-09T05:07:40;6.68;;;1.73;;
32347;SDS011;18821;44.800;10.326;2022-09-09T05:10:07;7.80;;;1.83;;
32347;SDS011;18821;44.800;10.326;2022-09-09T05:12:33;7.28;;;1.50;;
32347;SDS011;18821;44.800;10.326;2022-09-09T05:15:00;5.43;;;1.63;;
32347;SDS011;18821;44.800;10.326;2022-09-09T05:17:27;7.22;;;1.50;;
32347;SDS011;18821;44.800;10.326;2022-09-09T05:19:53;20.02;;;2.08;;
32347;SDS011;18821;44.800;10.326;2022-09-09T05:22:19;3.58;;;1.30;;
32347;SDS011;18821;44.800;10.326;2022-09-09T05:24:49;6.18;;;1.30;;
32347;SDS011;18821;44.800;10.326;2022-09-09T05:27:19;5.88;;;1.50;;
32347;SDS011;18821;44.800;10.326;2022-09-09T05:29:47;8.90;;;1.58;;
32347;SDS011;18821;44.800;10.326;2022-09-09T05:32:13;8.27;;;1.38;;
32347;SDS011;18821;44.800;10.326;2022-09-09T05:34:42;8.40;;;1.45;;
32347;SDS011;18821;44.800;10.326;2022-09-09T05:37:08;14.30;;;1.88;;
32347;SDS011;18821;44.800;10.326;2022-09-09T05:39:34;4.53;;;1.25;;
32347;SDS011;18821;44.800;10.326;2022-09-09T05:42:03;7.72;;;2.03;;
32347;SDS011;18821;44.800;10.326;2022-09-09T05:44:31;6.53;;;1.63;;
32347;SDS011;18821;44.800;10.326;2022-09-09T05:46:59;9.70;;;1.80;;
32347;SDS011;18821;44.800;10.326;2022-09-09T05:49:25;6.57;;;1.83;;
32347;SDS011;18821;44.800;10.326;2022-09-09T05:51:52;3.78;;;1.42;;
32347;SDS011;18821;44.800;10.326;2022-09-09T05:54:19;4.43;;;2.05;;
32347;SDS011;18821;44.800;10.326;2022-09-09T05:56:49;12.63;;;1.90;;
32347;SDS011;18821;44.800;10.326;2022-09-09T05:59:16;7.53;;;1.63;;
32347;SDS011;18821;44.800;10.326;2022-09-09T06:01:43;6.95;;;1.33;;
32347;SDS011;18821;44.800;10.326;2022-09-09T06:04:18;6.18;;;1.55;;
32347;SDS011;18821;44.800;10.326;2022-09-09T06:06:48;6.80;;;1.55;;
32347;SDS011;18821;44.800;10.326;2022-09-09T06:09:17;5.22;;;1.50;;
32347;SDS011;18821;44.800;10.326;2022-09-09T06:11:43;6.80;;;2.35;;
32347;SDS011;18821;44.800;10.326;2022-09-09T06:14:10;4.53;;;1.48;;
32347;SDS011;18821;44.800;10.326;2022-09-09T06:16:37;7.15;;;1.85;;
32347;SDS011;18821;44.800;10.326;2022-09-09T06:19:11;16.88;;;2.67;;
32347;SDS011;18821;44.800;10.326;2022-09-09T06:21:38;3.53;;;1.80;;
32347;SDS011;18821;44.800;10.326;2022-09-09T06:24:07;10.48;;;2.25;;
32347;SDS011;18821;44.800;10.326;2022-09-09T06:26:35;10.10;;;2.30;;
32347;SDS011;18821;44.800;10.326;2022-09-09T06:29:04;9.93;;;2.72;;
32347;SDS011;18821;44.800;10.326;2022-09-09T06:31:32;9.48;;;3.08;;
32347;SDS011;18821;44.800;10.326;2022-09-09T06:34:34;9.32;;;2.88;;
32347;SDS011;18821;44.800;10.326;2022-09-09T06:37:02;6.57;;;3.22;;
32347;SDS011;18821;44.800;10.326;2022-09-09T06:39:36;10.10;;;3.57;;
32347;SDS011;18821;44.800;10.326;2022-09-09T06:42:02;6.82;;;3.05;;
32347;SDS011;18821;44.800;10.326;2022-09-09T06:44:55;7.85;;;2.85;;
32347;SDS011;18821;44.800;10.326;2022-09-09T06:47:54;10.35;;;3.25;;
32347;SDS011;18821;44.800;10.326;2022-09-09T06:50:21;9.15;;;3.63;;
32347;SDS011;18821;44.800;10.326;2022-09-09T06:52:48;9.65;;;3.50;;
32347;SDS011;18821;44.800;10.326;2022-09-09T06:55:15;10.07;;;3.55;;
32347;SDS011;18821;44.800;10.326;2022-09-09T06:57:43;5.88;;;3.58;;
32347;SDS011;18821;44.800;10.326;2022-09-09T07:00:15;11.65;;;6.55;;
32347;SDS011;18821;44.800;10.326;2022-09-09T07:02:42;12.50;;;7.10;;
32347;SDS011;18821;44.800;10.326;2022-09-09T07:05:10;18.58;;;8.27;;
32347;SDS011;18821;44.800;10.326;2022-09-09T07:07:38;15.05;;;9.07;;
32347;SDS011;18821;44.800;10.326;2022-09-09T07:10:05;21.77;;;9.10;;
32347;SDS011;18821;44.800;10.326;2022-09-09T07:12:32;14.93;;;8.90;;
32347;SDS011;18821;44.800;10.326;2022-09-09T07:15:00;16.77;;;7.75;;
32347;SDS011;18821;44.800;10.326;2022-09-09T07:17:26;15.93;;;8.77;;
32347;SDS011;18821;44.800;10.326;2022-09-09T07:19:54;18.80;;;10.20;;
32347;SDS011;18821;44.800;10.326;2022-09-09T07:22:22;18.67;;;10.32;;
32347;SDS011;18821;44.800;10.326;2022-09-09T07:24:48;20.60;;;11.27;;
32347;SDS011;18821;44.800;10.326;2022-09-09T07:27:15;27.10;;;13.20;;
32347;SDS011;18821;44.800;10.326;2022-09-09T07:29:41;28.52;;;14.35;;
32347;SDS011;18821;44.800;10.326;2022-09-09T07:32:08;27.50;;;15.80;;
32347;SDS011;18821;44.800;10.326;2022-09-09T07:34:36;26.23;;;16.23;;
32347;SDS011;18821;44.800;10.326;2022-09-09T07:37:03;25.38;;;16.23;;
32347;SDS011;18821;44.800;10.326;2022-09-09T07:39:30;26.38;;;15.30;;
32347;SDS011;18821;44.800;10.326;2022-09-09T07:41:56;33.08;;;15.70;;
32347;SDS011;18821;44.800;10.326;2022-09-09T07:44:24;24.63;;;14.57;;
32347;SDS011;18821;44.800;10.326;2022-09-09T07:47:05;24.92;;;14.57;;
32347;SDS011;18821;44.800;10.326;2022-09-09T07:49:37;26.60;;;15.73;;
32347;SDS011;18821;44.800;10.326;2022-09-09T07:52:05;30.33;;;15.18;;
32347;SDS011;18821;44.800;10.326;2022-09-09T07:54:32;29.90;;;16.85;;
32347;SDS011;18821;44.800;10.326;2022-09-09T07:56:59;28.40;;;16.05;;
32347;SDS011;18821;44.800;10.326;2022-09-09T07:59:27;32.17;;;18.05;;
32347;SDS011;18821;44.800;10.326;2022-09-09T08:01:56;28.13;;;16.50;;
32347;SDS011;18821;44.800;10.326;2022-09-09T08:04:27;31.30;;;19.00;;
32347;SDS011;18821;44.800;10.326;2022-09-09T08:06:58;46.15;;;19.27;;
32347;SDS011;18821;44.800;10.326;2022-09-09T08:09:27;33.13;;;17.52;;
32347;SDS011;18821;44.800;10.326;2022-09-09T08:12:00;26.90;;;17.15;;
32347;SDS011;18821;44.800;10.326;2022-09-09T08:14:30;27.48;;;18.48;;
32347;SDS011;18821;44.800;10.326;2022-09-09T08:16:57;30.98;;;17.88;;
32347;SDS011;18821;44.800;10.326;2022-09-09T08:19:27;31.63;;;19.45;;
32347;SDS011;18821;44.800;10.326;2022-09-09T08:21:55;32.05;;;18.80;;
32347;SDS011;18821;44.800;10.326;2022-09-09T08:24:22;30.15;;;19.35;;
32347;SDS011;18821;44.800;10.326;2022-09-09T08:26:49;31.67;;;18.40;;
32347;SDS011;18821;44.800;10.326;2022-09-09T08:29:18;33.40;;;20.15;;
32347;SDS011;18821;44.800;10.326;2022-09-09T08:31:47;35.88;;;19.30;;
32347;SDS011;18821;44.800;10.326;2022-09-09T08:34:23;34.08;;;19.73;;
32347;SDS011;18821;44.800;10.326;2022-09-09T08:36:51;38.40;;;20.80;;
32347;SDS011;18821;44.800;10.326;2022-09-09T08:39:22;35.45;;;20.52;;
32347;SDS011;18821;44.800;10.326;2022-09-09T08:41:53;36.13;;;21.85;;
32347;SDS011;18821;44.800;10.326;2022-09-09T08:49:42;45.08;;;22.90;;
32347;SDS011;18821;44.800;10.326;2022-09-09T08:55:19;39.38;;;23.38;;
32347;SDS011;18821;44.800;10.326;2022-09-09T08:57:51;45.65;;;21.98;;
32347;SDS011;18821;44.800;10.326;2022-09-09T09:00:19;46.70;;;24.45;;
32347;SDS011;18821;44.800;10.326;2022-09-09T09:05:46;31.58;;;20.40;;
32347;SDS011;18821;44.800;10.326;2022-09-09T09:08:25;39.67;;;20.67;;
32347;SDS011;18821;44.800;10.326;2022-09-09T09:10:59;38.10;;;20.90;;
32347;SDS011;18821;44.800;10.326;2022-09-09T09:13:34;35.28;;;20.55;;
32347;SDS011;18821;44.800;10.326;2022-09-09T09:16:13;35.50;;;20.15;;
32347;SDS011;18821;44.800;10.326;2022-09-09T09:19:04;31.60;;;19.00;;
32347;SDS011;18821;44.800;10.326;2022-09-09T09:24:19;34.65;;;21.27;;
32347;SDS011;18821;44.800;10.326;2022-09-09T09:26:50;35.90;;;17.55;;
32347;SDS011;18821;44.800;10.326;2022-09-09T09:29:19;38.75;;;20.33;;
32347;SDS011;18821;44.800;10.326;2022-09-09T09:31:52;32.97;;;17.60;;
32347;SDS011;18821;44.800;10.326;2022-09-09T09:34:21;37.33;;;16.65;;
32347;SDS011;18821;44.800;10.326;2022-09-09T09:36:56;31.90;;;17.02;;
32347;SDS011;18821;44.800;10.326;2022-09-09T09:41:57;31.95;;;17.10;;
32347;SDS011;18821;44.800;10.326;2022-09-09T09:44:33;31.75;;;17.80;;
32347;SDS011;18821;44.800;10.326;2022-09-09T09:49:59;31.83;;;16.85;;
32347;SDS011;18821;44.800;10.326;2022-09-09T09:52:32;29.38;;;15.38;;
32347;SDS011;18821;44.800;10.326;2022-09-09T09:55:02;21.95;;;13.10;;
32347;SDS011;18821;44.800;10.326;2022-09-09T09:57:32;20.95;;;12.23;;
32347;SDS011;18821;44.800;10.326;2022-09-09T10:02:41;24.75;;;12.25;;
32347;SDS011;18821;44.800;10.326;2022-09-09T10:05:18;24.00;;;10.82;;
32347;SDS011;18821;44.800;10.326;2022-09-09T10:15:45;24.70;;;14.50;;
32347;SDS011;18821;44.800;10.326;2022-09-09T10:32:41;25.60;;;16.00;;
32347;SDS011;18821;44.800;10.326;2022-09-09T10:40:33;20.70;;;14.07;;
32347;SDS011;18821;44.800;10.326;2022-09-09T10:56:10;15.43;;;7.40;;
32347;SDS011;18821;44.800;10.326;2022-09-09T10:58:47;14.57;;;7.95;;
32347;SDS011;18821;44.800;10.326;2022-09-09T11:01:57;13.02;;;7.70;;
32347;SDS011;18821;44.800;10.326;2022-09-09T11:04:47;11.43;;;8.07;;
32347;SDS011;18821;44.800;10.326;2022-09-09T11:07:22;16.67;;;8.17;;
32347;SDS011;18821;44.800;10.326;2022-09-09T11:09:54;17.83;;;7.45;;
32347;SDS011;18821;44.800;10.326;2022-09-09T11:12:28;11.00;;;5.97;;
32347;SDS011;18821;44.800;10.326;2022-09-09T11:17:40;10.65;;;5.25;;
32347;SDS011;18821;44.800;10.326;2022-09-09T11:20:12;11.52;;;5.80;;
32347;SDS011;18821;44.800;10.326;2022-09-09T11:22:43;13.27;;;6.20;;
32347;SDS011;18821;44.800;10.326;2022-09-09T11:25:15;13.95;;;6.07;;
32347;SDS011;18821;44.800;10.326;2022-09-09T11:38:39;11.07;;;4.45;;
32347;SDS011;18821;44.800;10.326;2022-09-09T11:41:19;11.75;;;4.18;;
32347;SDS011;18821;44.800;10.326;2022-09-09T11:46:14;9.70;;;4.72;;
32347;SDS011;18821;44.800;10.326;2022-09-09T11:48:44;7.43;;;4.28;;
32347;SDS011;18821;44.800;10.326;2022-09-09T11:51:13;7.40;;;4.07;;
32347;SDS011;18821;44.800;10.326;2022-09-09T11:53:58;12.55;;;3.83;;
32347;SDS011;18821;44.800;10.326;2022-09-09T11:56:31;5.22;;;3.47;;
32347;SDS011;18821;44.800;10.326;2022-09-09T12:09:54;13.20;;;4.35;;
32347;SDS011;18821;44.800;10.326;2022-09-09T12:12:25;16.27;;;4.40;;
32347;SDS011;18821;44.800;10.326;2022-09-09T12:17:43;5.88;;;2.78;;
32347;SDS011;18821;44.800;10.326;2022-09-09T12:25:36;8.40;;;2.42;;
32347;SDS011;18821;44.800;10.326;2022-09-09T12:31:06;10.25;;;3.20;;
32347;SDS011;18821;44.800;10.326;2022-09-09T12:33:39;12.35;;;3.13;;
32347;SDS011;18821;44.800;10.326;2022-09-09T12:36:11;6.22;;;2.90;;
32347;SDS011;18821;44.800;10.326;2022-09-09T12:38:44;15.80;;;2.25;;
32347;SDS011;18821;44.800;10.326;2022-09-09T12:41:22;7.60;;;2.13;;
32347;SDS011;18821;44.800;10.326;2022-09-09T12:43:50;6.53;;;2.35;;
32347;SDS011;18821;44.800;10.326;2022-09-09T12:46:32;5.68;;;2.00;;
32347;SDS011;18821;44.800;10.326;2022-09-09T12:48:59;9.05;;;2.28;;
32347;SDS011;18821;44.800;10.326;2022-09-09T12:51:29;6.30;;;2.20;;
32347;SDS011;18821;44.800;10.326;2022-09-09T12:53:58;5.95;;;2.40;;
32347;SDS011;18821;44.800;10.326;2022-09-09T12:56:26;8.32;;;2.28;;
32347;SDS011;18821;44.800;10.326;2022-09-09T12:58:55;10.85;;;2.35;;
32347;SDS011;18821;44.800;10.326;2022-09-09T13:01:28;9.23;;;2.17;;
32347;SDS011;18821;44.800;10.326;2022-09-09T13:03:56;6.82;;;2.08;;
32347;SDS011;18821;44.800;10.326;2022-09-09T13:06:26;5.53;;;1.60;;
32347;SDS011;18821;44.800;10.326;2022-09-09T13:08:55;3.22;;;1.73;;
32347;SDS011;18821;44.800;10.326;2022-09-09T13:11:37;9.68;;;2.33;;
32347;SDS011;18821;44.800;10.326;2022-09-09T13:14:22;5.90;;;1.77;;
32347;SDS011;18821;44.800;10.326;2022-09-09T13:16:59;4.05;;;1.65;;
32347;SDS011;18821;44.800;10.326;2022-09-09T13:19:33;7.70;;;2.15;;
32347;SDS011;18821;44.800;10.326;2022-09-09T13:24:40;6.65;;;2.00;;
32347;SDS011;18821;44.800;10.326;2022-09-09T13:27:26;6.35;;;1.98;;
32347;SDS011;18821;44.800;10.326;2022-09-09T13:30:20;5.65;;;1.73;;
32347;SDS011;18821;44.800;10.326;2022-09-09T13:38:13;3.70;;;1.77;;
32347;SDS011;18821;44.800;10.326;2022-09-09T13:40:40;7.95;;;2.78;;
32347;SDS011;18821;44.800;10.326;2022-09-09T13:43:27;4.05;;;1.60;;
32347;SDS011;18821;44.800;10.326;2022-09-09T13:45:54;5.90;;;2.00;;
32347;SDS011;18821;44.800;10.326;2022-09-09T13:48:22;7.20;;;1.90;;
32347;SDS011;18821;44.800;10.326;2022-09-09T13:50:58;5.68;;;1.75;;
32347;SDS011;18821;44.800;10.326;2022-09-09T13:53:27;8.90;;;2.17;;
32347;SDS011;18821;44.800;10.326;2022-09-09T13:55:53;9.25;;;2.72;;
32347;SDS011;18821;44.800;10.326;2022-09-09T13:58:20;7.97;;;1.75;;
32347;SDS011;18821;44.800;10.326;2022-09-09T14:00:46;9.73;;;1.98;;
32347;SDS011;18821;44.800;10.326;2022-09-09T14:03:13;6.15;;;1.58;;
32347;SDS011;18821;44.800;10.326;2022-09-09T14:05:39;11.60;;;1.90;;
32347;SDS011;18821;44.800;10.326;2022-09-09T14:08:05;5.25;;;1.73;;
32347;SDS011;18821;44.800;10.326;2022-09-09T14:10:32;5.95;;;1.60;;
32347;SDS011;18821;44.800;10.326;2022-09-09T14:13:02;3.83;;;2.00;;
32347;SDS011;18821;44.800;10.326;2022-09-09T14:15:28;4.30;;;1.35;;
32347;SDS011;18821;44.800;10.326;2022-09-09T14:17:54;5.38;;;1.92;;
32347;SDS011;18821;44.800;10.326;2022-09-09T14:20:20;8.05;;;1.70;;
32347;SDS011;18821;44.800;10.326;2022-09-09T14:22:46;4.72;;;2.00;;
32347;SDS011;18821;44.800;10.326;2022-09-09T14:25:12;5.38;;;1.83;;
32347;SDS011;18821;44.800;10.326;2022-09-09T14:27:39;6.70;;;1.50;;
32347;SDS011;18821;44.800;10.326;2022-09-09T14:30:06;6.07;;;2.08;;
32347;SDS011;18821;44.800;10.326;2022-09-09T14:32:33;6.35;;;1.80;;
32347;SDS011;18821;44.800;10.326;2022-09-09T14:34:59;7.72;;;2.03;;
32347;SDS011;18821;44.800;10.326;2022-09-09T14:37:26;5.10;;;1.90;;
32347;SDS011;18821;44.800;10.326;2022-09-09T14:39:53;11.20;;;1.65;;
32347;SDS011;18821;44.800;10.326;2022-09-09T14:42:19;4.18;;;1.80;;
32347;SDS011;18821;44.800;10.326;2022-09-09T14:44:47;4.85;;;1.90;;
32347;SDS011;18821;44.800;10.326;2022-09-09T14:47:13;8.20;;;2.00;;
32347;SDS011;18821;44.800;10.326;2022-09-09T14:49:39;5.05;;;1.70;;
32347;SDS011;18821;44.800;10.326;2022-09-09T14:52:05;4.15;;;1.73;;
32347;SDS011;18821;44.800;10.326;2022-09-09T14:54:31;6.07;;;1.98;;
32347;SDS011;18821;44.800;10.326;2022-09-09T14:56:57;4.57;;;1.50;;
32347;SDS011;18821;44.800;10.326;2022-09-09T14:59:24;6.88;;;2.20;;
32347;SDS011;18821;44.800;10.326;2022-09-09T15:01:50;4.53;;;2.10;;
32347;SDS011;18821;44.800;10.326;2022-09-09T15:04:16;3.85;;;1.95;;
32347;SDS011;18821;44.800;10.326;2022-09-09T15:06:44;6.45;;;1.75;;
32347;SDS011;18821;44.800;10.326;2022-09-09T15:09:13;5.10;;;1.75;;
32347;SDS011;18821;44.800;10.326;2022-09-09T15:11:40;6.85;;;2.28;;
32347;SDS011;18821;44.800;10.326;2022-09-09T15:14:07;5.32;;;1.80;;
32347;SDS011;18821;44.800;10.326;2022-09-09T15:16:34;7.57;;;2.20;;
32347;SDS011;18821;44.800;10.326;2022-09-09T15:19:00;6.05;;;1.67;;
32347;SDS011;18821;44.800;10.326;2022-09-09T15:21:28;7.35;;;2.20;;
32347;SDS011;18821;44.800;10.326;2022-09-09T15:23:57;4.85;;;2.00;;
32347;SDS011;18821;44.800;10.326;2022-09-09T15:26:24;5.93;;;2.10;;
32347;SDS011;18821;44.800;10.326;2022-09-09T15:28:51;4.30;;;1.90;;
32347;SDS011;18821;44.800;10.326;2022-09-09T15:31:18;6.32;;;2.17;;
32347;SDS011;18821;44.800;10.326;2022-09-09T15:33:46;4.75;;;2.15;;
32347;SDS011;18821;44.800;10.326;2022-09-09T15:38:50;5.18;;;1.80;;
32347;SDS011;18821;44.800;10.326;2022-09-09T15:41:17;5.88;;;1.98;;
32347;SDS011;18821;44.800;10.326;2022-09-09T15:43:49;6.85;;;2.08;;
32347;SDS011;18821;44.800;10.326;2022-09-09T15:48:42;5.95;;;1.77;;
32347;SDS011;18821;44.800;10.326;2022-09-09T15:51:09;6.85;;;1.85;;
32347;SDS011;18821;44.800;10.326;2022-09-09T15:53:36;4.65;;;2.00;;
32347;SDS011;18821;44.800;10.326;2022-09-09T15:56:05;4.95;;;1.90;;
32347;SDS011;18821;44.800;10.326;2022-09-09T15:58:32;5.13;;;2.22;;
32347;SDS011;18821;44.800;10.326;2022-09-09T16:01:03;8.85;;;2.08;;
32347;SDS011;18821;44.800;10.326;2022-09-09T16:03:34;11.32;;;2.05;;
32347;SDS011;18821;44.800;10.326;2022-09-09T16:06:06;9.32;;;2.15;;
32347;SDS011;18821;44.800;10.326;2022-09-09T16:08:37;11.82;;;1.98;;
32347;SDS011;18821;44.800;10.326;2022-09-09T16:13:41;4.50;;;2.00;;
32347;SDS011;18821;44.800;10.326;2022-09-09T16:16:09;13.75;;;2.50;;
32347;SDS011;18821;44.800;10.326;2022-09-09T16:18:44;5.47;;;2.03;;
32347;SDS011;18821;44.800;10.326;2022-09-09T16:21:16;6.35;;;2.33;;
32347;SDS011;18821;44.800;10.326;2022-09-09T16:23:44;6.28;;;1.85;;
32347;SDS011;18821;44.800;10.326;2022-09-09T16:26:11;5.40;;;1.88;;
32347;SDS011;18821;44.800;10.326;2022-09-09T16:28:39;8.02;;;2.17;;
32347;SDS011;18821;44.800;10.326;2022-09-09T16:31:06;9.60;;;2.85;;
32347;SDS011;18821;44.800;10.326;2022-09-09T16:33:33;8.75;;;3.95;;
32347;SDS011;18821;44.800;10.326;2022-09-09T16:36:04;11.02;;;2.47;;
32347;SDS011;18821;44.800;10.326;2022-09-09T16:38:32;11.18;;;3.00;;
32347;SDS011;18821;44.800;10.326;2022-09-09T16:41:02;9.82;;;3.10;;
32347;SDS011;18821;44.800;10.326;2022-09-09T16:43:30;9.15;;;2.58;;
32347;SDS011;18821;44.800;10.326;2022-09-09T16:46:00;6.20;;;2.42;;
32347;SDS011;18821;44.800;10.326;2022-09-09T16:48:26;10.82;;;2.92;;
32347;SDS011;18821;44.800;10.326;2022-09-09T16:51:07;7.50;;;2.63;;
32347;SDS011;18821;44.800;10.326;2022-09-09T16:53:37;7.60;;;2.83;;
32347;SDS011;18821;44.800;10.326;2022-09-09T16:56:06;8.15;;;3.67;;
32347;SDS011;18821;44.800;10.326;2022-09-09T16:58:34;8.40;;;3.92;;
32347;SDS011;18821;44.800;10.326;2022-09-09T17:01:00;12.32;;;4.40;;
32347;SDS011;18821;44.800;10.326;2022-09-09T17:03:29;12.55;;;5.43;;
32347;SDS011;18821;44.800;10.326;2022-09-09T17:05:56;7.53;;;3.10;;
32347;SDS011;18821;44.800;10.326;2022-09-09T17:08:29;14.63;;;4.03;;
32347;SDS011;18821;44.800;10.326;2022-09-09T17:10:55;7.82;;;3.55;;
32347;SDS011;18821;44.800;10.326;2022-09-09T17:13:22;12.63;;;5.28;;
32347;SDS011;18821;44.800;10.326;2022-09-09T17:15:49;7.10;;;4.20;;
32347;SDS011;18821;44.800;10.326;2022-09-09T17:18:16;11.73;;;3.88;;
32347;SDS011;18821;44.800;10.326;2022-09-09T17:20:42;7.93;;;5.43;;
32347;SDS011;18821;44.800;10.326;2022-09-09T17:23:09;12.48;;;5.07;;
32347;SDS011;18821;44.800;10.326;2022-09-09T17:25:40;11.43;;;5.13;;
32347;SDS011;18821;44.800;10.326;2022-09-09T17:28:07;10.35;;;5.30;;
32347;SDS011;18821;44.800;10.326;2022-09-09T17:30:33;9.40;;;3.63;;
32347;SDS011;18821;44.800;10.326;2022-09-09T17:33:02;9.95;;;4.40;;
32347;SDS011;18821;44.800;10.326;2022-09-09T17:35:29;10.82;;;5.82;;
32347;SDS011;18821;44.800;10.326;2022-09-09T17:37:56;10.10;;;4.60;;
32347;SDS011;18821;44.800;10.326;2022-09-09T17:40:22;7.90;;;3.47;;
32347;SDS011;18821;44.800;10.326;2022-09-09T17:42:49;13.75;;;4.80;;